CheckWX is a tool to help pilots better visualize weather data.  It is not intended as a substitute for an official pre-flight weather briefing.

05:14:12 UTC

DGAA METAR
Kotoka International Airport
Accra, Ghana
Current

1 hour ago

DGAA 240400Z 28007KT 9999 SCT014 BKN016 BKN020 28/26 Q1008 NOSIG
Observed
Feb-24 @ 04:00 UTC
Wind
  • 280° at 7 KTS
Visibility
10,000+ meters
Flight Rules
MVFR
Cloud Levels
  • Scattered at 1,400' AGL
  • Broken at 1,600' AGL
  • Broken at 2,000' AGL
Temperature
28°C / 82°F
Dewpoint
26°C / 79°F
Humidity
89%
Altimeter
29.76" Hg
Pressure
1007.92 hPa
Previous

2 hours ago

DGAA 240300Z 23009KT 9999 BKN014 OVC025 29/26 Q1008 NOSIG
Observed
Feb-24 @ 03:00 UTC
Wind
  • 230° at 9 KTS
Visibility
10,000+ meters
Flight Rules
MVFR
Cloud Levels
  • Broken at 1,400' AGL
  • Overcast at 2,500' AGL
Temperature
29°C / 84°F
Dewpoint
26°C / 79°F
Humidity
84%
Altimeter
29.76" Hg
Pressure
1007.92 hPa
Previous

3 hours ago

DGAA 240200Z 23009KT 9999 FEW014 29/26 Q1009 NOSIG
Observed
Feb-24 @ 02:00 UTC
Wind
  • 230° at 9 KTS
Visibility
10,000+ meters
Flight Rules
VFR
Cloud Levels
  • Few at 1,400' AGL
Temperature
29°C / 84°F
Dewpoint
26°C / 79°F
Humidity
84%
Altimeter
29.79" Hg
Pressure
1008.92 hPa